Time;durP1;ratioP1;P1;durP2;ratioP2;P2;SDS_P1;SDS_P2;PMS_P1;PMS_P2;Temp;Humidity;BMP_temperature;BMP_pressure;BME280_temperature;BME280_humidity;BME280_pressure;Samples;Min_cycle;Max_cycle;Signal;HPM_P1;HPM_P2
2023/12/12 00:00:31;;;;;;;14.73;4.20;;;7.30;99.90;;;;;;5073727;28;20272;-73
2023/12/12 00:02:58;;;;;;;17.60;3.60;;;7.30;99.90;;;;;;5074007;28;20203;-73
2023/12/12 00:05:25;;;;;;;16.37;3.80;;;7.30;99.90;;;;;;5073827;28;20220;-73
2023/12/12 00:07:52;;;;;;;10.90;3.60;;;7.30;99.90;;;;;;5073766;28;20198;-73
2023/12/12 00:10:20;;;;;;;17.13;3.70;;;7.30;99.90;;;;;;5074034;28;20254;-72
2023/12/12 00:12:47;;;;;;;13.53;3.53;;;7.30;99.90;;;;;;5073552;28;20239;-72
2023/12/12 00:15:13;;;;;;;16.60;3.07;;;7.30;99.90;;;;;;5073741;28;20193;-73
2023/12/12 00:17:40;;;;;;;12.70;3.30;;;7.30;99.90;;;;;;5073650;28;20204;-73
2023/12/12 00:20:09;;;;;;;13.07;3.23;;;7.30;99.90;;;;;;5077881;28;20205;-73
2023/12/12 00:22:37;;;;;;;15.60;3.57;;;7.30;99.90;;;;;;5075278;28;20258;-72
2023/12/12 00:25:04;;;;;;;17.87;3.97;;;7.30;99.90;;;;;;5073958;28;20220;-73
2023/12/12 00:27:31;;;;;;;14.17;3.80;;;7.40;99.90;;;;;;5073156;28;20262;-73
2023/12/12 00:29:58;;;;;;;13.13;3.60;;;7.40;99.90;;;;;;5073059;28;20196;-73
2023/12/12 00:32:24;;;;;;;12.87;3.57;;;7.40;99.90;;;;;;5073574;28;20204;-74
2023/12/12 00:34:51;;;;;;;11.67;3.60;;;7.40;99.90;;;;;;5073418;28;20279;-74
2023/12/12 00:37:18;;;;;;;15.63;4.00;;;7.40;99.90;;;;;;5073150;28;20505;-73
2023/12/12 00:39:46;;;;;;;18.30;3.83;;;7.40;99.90;;;;;;5073000;28;20205;-73
2023/12/12 00:42:12;;;;;;;20.07;4.27;;;7.30;99.90;;;;;;5073366;28;20261;-73
2023/12/12 00:44:39;;;;;;;10.00;3.80;;;7.30;99.90;;;;;;5073078;28;20219;-73
2023/12/12 00:47:06;;;;;;;16.10;3.90;;;7.30;99.90;;;;;;5072984;28;20660;-73
2023/12/12 00:49:33;;;;;;;12.37;4.07;;;7.30;99.90;;;;;;5072821;28;20224;-73
2023/12/12 00:51:59;;;;;;;19.20;3.73;;;7.30;99.90;;;;;;5073062;28;20207;-73
2023/12/12 00:54:26;;;;;;;16.40;3.90;;;7.20;99.90;;;;;;5072917;28;20204;-74
2023/12/12 00:56:54;;;;;;;19.70;3.83;;;7.30;99.90;;;;;;5072875;28;20208;-74
2023/12/12 00:59:21;;;;;;;18.33;3.80;;;7.30;99.90;;;;;;5073227;28;20616;-72
2023/12/12 01:01:47;;;;;;;15.53;4.53;;;7.30;99.90;;;;;;5072137;28;20205;-74
2023/12/12 01:04:14;;;;;;;16.20;3.60;;;7.30;99.90;;;;;;5072727;28;20221;-73
2023/12/12 01:06:41;;;;;;;13.63;4.53;;;7.20;99.90;;;;;;5072847;28;20204;-74
2023/12/12 01:09:07;;;;;;;16.23;3.87;;;7.30;99.90;;;;;;5072622;28;20243;-73
2023/12/12 01:11:34;;;;;;;18.67;3.90;;;7.30;99.90;;;;;;5072926;28;20200;-72
2023/12/12 01:14:02;;;;;;;21.20;4.03;;;7.30;99.90;;;;;;5072618;28;20739;-73
2023/12/12 01:16:28;;;;;;;11.53;3.93;;;7.30;99.90;;;;;;5072823;28;20193;-73
2023/12/12 01:18:55;;;;;;;18.63;3.67;;;7.30;99.90;;;;;;5072719;28;20205;-73
2023/12/12 01:21:22;;;;;;;14.43;4.13;;;7.30;99.90;;;;;;5072663;28;20274;-73
2023/12/12 01:23:50;;;;;;;14.73;3.80;;;7.30;99.90;;;;;;5072764;28;20201;-73
2023/12/12 01:26:16;;;;;;;13.73;3.63;;;7.30;99.90;;;;;;5072418;28;20672;-73
2023/12/12 01:28:43;;;;;;;18.07;5.00;;;7.30;99.90;;;;;;5072662;28;20200;-73
2023/12/12 01:31:11;;;;;;;13.27;3.90;;;7.30;99.90;;;;;;5072568;28;20250;-73
2023/12/12 01:33:38;;;;;;;13.73;3.57;;;7.30;99.90;;;;;;5072489;28;20250;-73
2023/12/12 01:36:05;;;;;;;19.47;4.70;;;7.20;99.90;;;;;;5072382;28;20207;-74
2023/12/12 01:38:32;;;;;;;13.67;4.23;;;7.20;99.90;;;;;;5072609;28;20195;-74
2023/12/12 01:40:59;;;;;;;16.43;4.23;;;7.20;99.90;;;;;;5072628;28;20598;-73
2023/12/12 01:43:26;;;;;;;19.00;4.17;;;7.20;99.90;;;;;;5072465;28;20197;-73
2023/12/12 01:45:55;;;;;;;9.73;3.50;;;7.20;99.90;;;;;;5072200;28;20230;-74
2023/12/12 01:48:24;;;;;;;15.30;4.40;;;7.20;99.90;;;;;;5072102;28;20202;-73
2023/12/12 01:50:51;;;;;;;15.17;3.97;;;7.20;99.90;;;;;;5072361;28;20233;-73
2023/12/12 01:53:20;;;;;;;15.77;3.60;;;7.20;99.90;;;;;;5072652;28;20242;-73
2023/12/12 01:55:47;;;;;;;16.63;4.07;;;7.20;99.90;;;;;;5072438;28;20197;-73
2023/12/12 01:58:14;;;;;;;13.97;4.40;;;7.20;99.90;;;;;;5072407;28;20196;-73
2023/12/12 02:00:41;;;;;;;17.63;5.37;;;7.20;99.90;;;;;;5072330;28;20201;-73
2023/12/12 02:03:08;;;;;;;17.00;4.10;;;7.20;99.90;;;;;;5072231;28;20242;-73
2023/12/12 02:05:40;;;;;;;17.53;4.27;;;7.20;99.90;;;;;;5072259;28;20692;-73
2023/12/12 02:08:07;;;;;;;14.57;3.97;;;7.20;99.90;;;;;;5072362;28;20209;-73
2023/12/12 02:10:34;;;;;;;11.87;4.03;;;7.10;99.90;;;;;;5072428;28;20811;-73
2023/12/12 02:13:01;;;;;;;17.73;4.40;;;7.10;99.90;;;;;;5073444;28;20201;-73
2023/12/12 02:15:28;;;;;;;19.27;3.93;;;7.10;99.90;;;;;;5075949;28;20652;-73
2023/12/12 02:17:54;;;;;;;17.33;3.97;;;7.10;99.90;;;;;;5075636;28;20682;-74
2023/12/12 02:20:21;;;;;;;20.57;4.03;;;7.00;99.90;;;;;;5076071;28;20193;-74
2023/12/12 02:22:49;;;;;;;13.07;3.57;;;7.00;99.90;;;;;;5076072;28;20197;-74
2023/12/12 02:25:18;;;;;;;18.63;5.00;;;7.00;99.90;;;;;;5075853;28;20231;-74
2023/12/12 02:27:44;;;;;;;20.17;4.53;;;6.90;99.90;;;;;;5075707;28;20197;-74
2023/12/12 02:30:14;;;;;;;20.80;4.10;;;6.90;99.90;;;;;;5075440;28;20655;-74
2023/12/12 02:32:40;;;;;;;19.80;4.33;;;7.00;99.90;;;;;;5075547;28;20292;-74
2023/12/12 02:35:08;;;;;;;11.57;3.57;;;7.00;99.90;;;;;;5075531;28;20263;-74
2023/12/12 02:37:34;;;;;;;19.93;4.53;;;6.90;99.90;;;;;;5075531;28;20270;-73
2023/12/12 02:40:03;;;;;;;13.43;3.63;;;6.90;99.90;;;;;;5075451;28;20193;-73
2023/12/12 02:42:30;;;;;;;16.23;4.30;;;6.90;99.90;;;;;;5075424;28;20204;-74
2023/12/12 02:44:56;;;;;;;14.77;4.57;;;6.90;99.90;;;;;;5075386;28;20217;-74
2023/12/12 02:47:23;;;;;;;14.73;3.60;;;6.90;99.90;;;;;;5075426;28;20200;-74
2023/12/12 02:49:50;;;;;;;20.60;4.97;;;6.80;99.90;;;;;;5075264;28;20312;-74
2023/12/12 02:52:17;;;;;;;17.53;4.23;;;6.80;99.90;;;;;;5075345;28;20397;-74
2023/12/12 02:54:43;;;;;;;23.90;4.17;;;6.80;99.90;;;;;;5075279;28;20206;-74
2023/12/12 02:57:11;;;;;;;19.00;4.83;;;6.80;99.90;;;;;;5075139;28;20204;-73
2023/12/12 02:59:38;;;;;;;16.40;3.77;;;6.80;99.90;;;;;;5074978;28;20256;-74
2023/12/12 03:02:05;;;;;;;17.97;4.03;;;6.80;99.90;;;;;;5074969;28;20599;-73
2023/12/12 03:04:31;;;;;;;14.43;3.93;;;6.80;99.90;;;;;;5074806;28;20557;-74
2023/12/12 03:06:58;;;;;;;24.27;5.20;;;6.80;99.90;;;;;;5074971;28;20197;-74
2023/12/12 03:09:24;;;;;;;23.00;4.63;;;6.70;99.90;;;;;;5074846;28;20263;-73
2023/12/12 03:11:52;;;;;;;18.87;5.40;;;6.70;99.90;;;;;;5074843;28;20197;-74
2023/12/12 03:14:28;;;;;;;10.97;3.87;;;6.70;99.90;;;;;;5074675;28;20243;-73
2023/12/12 03:16:54;;;;;;;15.13;4.03;;;6.60;99.90;;;;;;5074967;28;20235;-72
2023/12/12 03:19:21;;;;;;;21.13;4.60;;;6.60;99.90;;;;;;5074501;28;20253;-72
2023/12/12 03:21:48;;;;;;;15.20;4.33;;;6.70;99.90;;;;;;5074630;28;20193;-73
2023/12/12 03:24:14;;;;;;;18.50;4.67;;;6.60;99.90;;;;;;5073796;28;20197;-73
2023/12/12 03:26:41;;;;;;;16.70;4.33;;;6.70;99.90;;;;;;5074377;28;20230;-73
2023/12/12 03:29:08;;;;;;;17.77;3.87;;;6.70;99.90;;;;;;5074446;28;20263;-73
2023/12/12 03:31:36;;;;;;;17.83;4.10;;;6.80;99.90;;;;;;5074534;28;20201;-73
2023/12/12 03:34:02;;;;;;;18.33;4.20;;;6.80;99.90;;;;;;5074481;28;20259;-73
2023/12/12 03:36:29;;;;;;;12.33;3.67;;;6.90;99.90;;;;;;5074283;28;20652;-73
2023/12/12 03:38:56;;;;;;;17.67;4.10;;;6.90;99.90;;;;;;5074228;28;20197;-74
2023/12/12 03:41:23;;;;;;;14.33;4.47;;;6.90;99.90;;;;;;5074479;28;20201;-74
2023/12/12 03:43:50;;;;;;;16.27;4.50;;;6.90;99.90;;;;;;5074155;28;20621;-73
2023/12/12 03:46:18;;;;;;;17.07;3.53;;;6.90;99.90;;;;;;5074387;28;20275;-73
2023/12/12 03:48:46;;;;;;;16.20;4.37;;;6.90;99.90;;;;;;5074157;28;20201;-74
2023/12/12 03:51:13;;;;;;;19.50;3.90;;;6.90;99.90;;;;;;5080048;28;20652;-74
2023/12/12 03:53:40;;;;;;;18.43;4.40;;;6.90;99.90;;;;;;5074039;28;20545;-73
2023/12/12 03:56:08;;;;;;;15.90;4.17;;;6.90;99.90;;;;;;5073866;28;20197;-73
2023/12/12 03:58:34;;;;;;;21.27;4.20;;;6.90;99.90;;;;;;5074148;28;20254;-73
2023/12/12 04:01:01;;;;;;;15.57;4.30;;;6.80;99.90;;;;;;5073893;28;20193;-73
2023/12/12 04:03:28;;;;;;;14.97;4.07;;;6.80;99.90;;;;;;5073765;28;20246;-73
2023/12/12 04:05:56;;;;;;;14.37;4.03;;;6.80;99.90;;;;;;5073783;28;20276;-73
2023/12/12 04:08:22;;;;;;;21.63;4.90;;;6.80;99.90;;;;;;5073687;28;20533;-73
2023/12/12 04:10:49;;;;;;;17.47;4.70;;;6.80;99.90;;;;;;5073862;28;20247;-72
2023/12/12 04:13:16;;;;;;;22.57;4.40;;;6.70;99.90;;;;;;5073848;28;20197;-72
2023/12/12 04:15:42;;;;;;;20.40;4.90;;;6.90;99.90;;;;;;5073623;28;20598;-73
2023/12/12 04:18:09;;;;;;;14.30;4.17;;;6.90;99.90;;;;;;5073534;28;20209;-72
2023/12/12 04:20:36;;;;;;;12.33;3.87;;;6.80;99.90;;;;;;5073361;28;20201;-73
2023/12/12 04:23:04;;;;;;;17.73;4.40;;;6.80;99.90;;;;;;5073341;28;20193;-73
2023/12/12 04:25:32;;;;;;;19.17;4.30;;;6.80;99.90;;;;;;5073254;28;20221;-73
2023/12/12 04:27:59;;;;;;;15.20;4.80;;;6.70;99.90;;;;;;5073425;28;20201;-73
2023/12/12 04:30:26;;;;;;;13.30;4.87;;;6.70;99.90;;;;;;5073434;28;20611;-73
2023/12/12 04:32:53;;;;;;;20.07;4.90;;;6.70;99.90;;;;;;5073174;28;20706;-73
2023/12/12 04:35:20;;;;;;;23.00;5.40;;;6.70;99.90;;;;;;5073012;28;20197;-72
2023/12/12 04:37:46;;;;;;;18.07;5.20;;;6.70;99.90;;;;;;5073324;28;20203;-73
2023/12/12 04:40:15;;;;;;;17.00;4.20;;;6.60;99.90;;;;;;5073219;28;20197;-73
2023/12/12 04:42:42;;;;;;;13.77;4.10;;;6.70;99.90;;;;;;5073419;28;20202;-73
2023/12/12 04:45:09;;;;;;;19.83;4.93;;;6.70;99.90;;;;;;5073153;28;20771;-72
2023/12/12 04:47:36;;;;;;;15.30;4.20;;;6.70;99.90;;;;;;5072991;28;20208;-72
2023/12/12 04:50:03;;;;;;;12.50;4.20;;;6.60;99.90;;;;;;5072884;28;20229;-73
2023/12/12 04:52:30;;;;;;;19.80;5.33;;;6.60;99.90;;;;;;5073109;28;20197;-73
2023/12/12 04:54:56;;;;;;;13.90;4.50;;;6.70;99.90;;;;;;5072969;28;20615;-73
2023/12/12 04:57:24;;;;;;;13.30;3.43;;;6.70;99.90;;;;;;5072853;28;20201;-73
2023/12/12 04:59:51;;;;;;;15.23;4.50;;;6.70;99.90;;;;;;5072911;28;20196;-73
2023/12/12 05:02:18;;;;;;;12.40;3.97;;;6.70;99.90;;;;;;5072763;28;20631;-74
2023/12/12 05:04:44;;;;;;;10.87;4.13;;;6.60;99.90;;;;;;5072868;28;20251;-73
2023/12/12 05:07:11;;;;;;;10.70;3.60;;;6.60;99.90;;;;;;5072847;28;20225;-73
2023/12/12 05:09:38;;;;;;;16.57;4.57;;;6.50;99.90;;;;;;5072792;28;20583;-73
2023/12/12 05:12:05;;;;;;;14.33;4.53;;;6.50;99.90;;;;;;5072393;28;20239;-73
2023/12/12 05:14:34;;;;;;;19.97;4.50;;;6.50;99.90;;;;;;5072698;28;20198;-73
2023/12/12 05:17:00;;;;;;;14.70;4.60;;;6.50;99.90;;;;;;5072511;28;20202;-73
2023/12/12 05:19:27;;;;;;;14.57;3.90;;;6.50;99.90;;;;;;5072648;28;20205;-73
2023/12/12 05:21:53;;;;;;;20.77;5.00;;;6.50;99.90;;;;;;5072665;28;20204;-73
2023/12/12 05:24:20;;;;;;;17.27;4.43;;;6.50;99.90;;;;;;5072548;28;20195;-73
2023/12/12 05:26:47;;;;;;;18.40;5.17;;;6.50;99.90;;;;;;5072509;28;20232;-73
2023/12/12 05:29:14;;;;;;;13.57;4.43;;;6.50;99.90;;;;;;5072429;28;20250;-73
2023/12/12 05:31:42;;;;;;;17.23;4.77;;;6.50;99.90;;;;;;5072205;28;20626;-72
2023/12/12 05:34:08;;;;;;;12.10;3.97;;;6.50;99.90;;;;;;5072333;28;20197;-72
2023/12/12 05:36:35;;;;;;;17.57;4.97;;;6.50;99.90;;;;;;5072552;28;20203;-72
2023/12/12 05:39:02;;;;;;;15.87;5.07;;;6.50;99.90;;;;;;5072407;28;20239;-73
2023/12/12 05:41:28;;;;;;;14.93;4.83;;;6.50;99.90;;;;;;5072507;28;20205;-73
2023/12/12 05:43:55;;;;;;;14.53;4.40;;;6.60;99.90;;;;;;5072095;28;20251;-73
2023/12/12 05:46:22;;;;;;;10.93;4.30;;;6.60;99.90;;;;;;5072425;28;20278;-73
2023/12/12 05:48:50;;;;;;;16.57;5.33;;;6.60;99.90;;;;;;5075200;28;20242;-74
2023/12/12 05:51:16;;;;;;;17.63;5.47;;;6.60;99.90;;;;;;5076347;28;20556;-73
2023/12/12 05:53:43;;;;;;;20.03;5.43;;;6.60;99.90;;;;;;5076122;28;20226;-73
2023/12/12 05:56:13;;;;;;;16.37;5.97;;;6.60;99.90;;;;;;5076441;28;20197;-75
2023/12/12 05:58:40;;;;;;;15.53;5.73;;;6.60;99.90;;;;;;5075897;28;20664;-73
2023/12/12 06:01:07;;;;;;;24.13;8.10;;;6.60;99.90;;;;;;5076060;28;20652;-73
2023/12/12 06:03:34;;;;;;;21.40;6.57;;;6.60;99.90;;;;;;5076181;28;20258;-73
2023/12/12 06:06:07;;;;;;;20.47;6.23;;;6.60;99.90;;;;;;5075737;28;20557;-74
2023/12/12 06:08:34;;;;;;;17.40;5.23;;;6.60;99.90;;;;;;5075937;28;20207;-73
2023/12/12 06:11:01;;;;;;;16.30;5.10;;;6.60;99.90;;;;;;5075806;28;20201;-73
2023/12/12 06:13:27;;;;;;;14.93;5.40;;;6.60;99.90;;;;;;5076137;28;20262;-73
2023/12/12 06:15:55;;;;;;;13.93;4.83;;;6.70;99.90;;;;;;5076230;28;20276;-73
2023/12/12 06:18:23;;;;;;;13.87;5.47;;;6.60;99.90;;;;;;5075736;28;20717;-72
2023/12/12 06:20:49;;;;;;;16.67;5.83;;;6.60;99.90;;;;;;5075892;28;20197;-73
2023/12/12 06:23:17;;;;;;;13.93;4.87;;;6.60;99.90;;;;;;5075640;28;20254;-73
2023/12/12 06:25:44;;;;;;;17.07;6.77;;;6.40;99.90;;;;;;5075469;28;20197;-73
2023/12/12 06:28:11;;;;;;;18.13;5.93;;;6.30;99.90;;;;;;5075511;28;20671;-73
2023/12/12 06:30:38;;;;;;;16.43;5.27;;;6.30;99.90;;;;;;5075628;28;20201;-73
2023/12/12 06:33:04;;;;;;;15.57;5.20;;;6.20;99.90;;;;;;5075471;28;20200;-73
2023/12/12 06:35:31;;;;;;;16.80;5.33;;;6.20;99.90;;;;;;5075626;28;20254;-73
2023/12/12 06:37:58;;;;;;;21.13;6.00;;;6.30;99.90;;;;;;5075843;28;20251;-72
2023/12/12 06:40:26;;;;;;;20.17;5.63;;;6.30;99.90;;;;;;5075624;28;20197;-73
2023/12/12 06:42:53;;;;;;;23.47;6.63;;;6.40;99.90;;;;;;5075192;28;20201;-72
2023/12/12 06:45:19;;;;;;;17.03;5.47;;;6.30;99.90;;;;;;5075241;28;20200;-72
2023/12/12 06:47:46;;;;;;;14.47;4.80;;;6.30;99.90;;;;;;5074983;28;20289;-73
2023/12/12 06:50:13;;;;;;;18.20;4.70;;;6.20;99.90;;;;;;5074905;28;20228;-73
2023/12/12 06:52:40;;;;;;;15.27;5.57;;;6.20;99.90;;;;;;5074766;28;20599;-72
2023/12/12 06:55:08;;;;;;;14.80;5.43;;;6.20;99.90;;;;;;5074823;28;20197;-72
2023/12/12 06:57:37;;;;;;;18.77;6.20;;;6.20;99.90;;;;;;5075135;28;20201;-73
2023/12/12 07:00:06;;;;;;;13.77;5.90;;;6.10;99.90;;;;;;5073902;28;20221;-73
2023/12/12 07:02:32;;;;;;;14.97;5.07;;;6.10;99.90;;;;;;5074892;28;20265;-73
2023/12/12 07:05:00;;;;;;;17.27;6.87;;;6.10;99.90;;;;;;5074849;28;20205;-72
2023/12/12 07:07:26;;;;;;;20.60;7.17;;;6.10;99.90;;;;;;5074730;28;20221;-72
2023/12/12 07:09:53;;;;;;;18.20;7.13;;;6.10;99.90;;;;;;5075035;28;20250;-72
2023/12/12 07:12:20;;;;;;;19.07;8.20;;;6.10;99.90;;;;;;5075156;28;20254;-72
2023/12/12 07:14:48;;;;;;;21.90;8.67;;;6.10;99.90;;;;;;5075219;28;20193;-73
2023/12/12 07:17:15;;;;;;;24.37;9.07;;;6.10;99.90;;;;;;5074811;28;20203;-73
2023/12/12 07:19:42;;;;;;;18.43;6.50;;;6.10;99.90;;;;;;5074834;28;20644;-73
2023/12/12 07:22:09;;;;;;;21.50;7.10;;;6.10;99.90;;;;;;5074924;28;20744;-73
2023/12/12 07:24:36;;;;;;;9.57;5.57;;;6.10;99.90;;;;;;5074944;28;20220;-73
2023/12/12 07:27:03;;;;;;;18.07;6.17;;;6.10;99.90;;;;;;5074642;28;20270;-72
2023/12/12 07:29:30;;;;;;;15.40;6.50;;;6.10;99.90;;;;;;5074558;28;20212;-73
2023/12/12 07:31:58;;;;;;;22.70;6.80;;;6.00;99.90;;;;;;5074573;28;20256;-72
2023/12/12 07:34:25;;;;;;;14.17;6.40;;;5.90;99.90;;;;;;5074541;28;20201;-73
2023/12/12 07:36:51;;;;;;;23.33;7.03;;;5.80;99.90;;;;;;5074384;28;20193;-73
2023/12/12 07:39:18;;;;;;;15.60;7.00;;;5.70;99.90;;;;;;5074369;28;20541;-73
2023/12/12 07:41:45;;;;;;;18.10;8.80;;;5.60;99.90;;;;;;5074079;28;20209;-73
2023/12/12 07:44:12;;;;;;;21.30;8.17;;;5.50;99.90;;;;;;5074164;28;20197;-74
2023/12/12 07:46:39;;;;;;;21.87;8.00;;;5.40;99.90;;;;;;5073791;28;20217;-74
2023/12/12 07:49:08;;;;;;;22.80;8.00;;;5.30;99.90;;;;;;5073868;28;20294;-74
2023/12/12 07:51:34;;;;;;;20.40;8.20;;;5.30;99.90;;;;;;5073858;28;20201;-74
2023/12/12 07:54:03;;;;;;;21.20;8.40;;;5.30;99.90;;;;;;5073906;28;20201;-73
2023/12/12 07:56:30;;;;;;;30.47;8.60;;;5.30;99.90;;;;;;5073558;28;20208;-74
2023/12/12 07:58:56;;;;;;;20.43;8.10;;;5.20;99.90;;;;;;5073259;28;20224;-73
2023/12/12 08:01:23;;;;;;;18.47;7.37;;;5.30;99.90;;;;;;5073739;28;20201;-73
2023/12/12 08:03:50;;;;;;;18.83;7.03;;;5.30;99.90;;;;;;5073329;28;20282;-73
2023/12/12 08:06:18;;;;;;;21.73;7.70;;;5.30;99.90;;;;;;5073498;28;20196;-73
2023/12/12 08:08:45;;;;;;;23.67;7.50;;;5.30;99.90;;;;;;5073602;28;20258;-73
2023/12/12 08:11:13;;;;;;;18.80;7.33;;;5.30;99.90;;;;;;5073119;28;20196;-72
2023/12/12 08:13:40;;;;;;;22.77;7.87;;;5.40;99.90;;;;;;5073425;28;20288;-73
2023/12/12 08:16:08;;;;;;;19.60;8.53;;;5.40;99.90;;;;;;5073293;28;20606;-73
2023/12/12 08:18:37;;;;;;;28.90;7.57;;;5.50;99.90;;;;;;5073462;28;20739;-72
2023/12/12 08:21:06;;;;;;;20.53;7.93;;;5.50;99.90;;;;;;5073211;28;20735;-73
2023/12/12 08:23:34;;;;;;;29.57;8.70;;;5.60;99.90;;;;;;5073166;28;20648;-73
2023/12/12 08:26:00;;;;;;;21.00;8.27;;;5.70;99.90;;;;;;5073285;28;20211;-73
2023/12/12 08:28:27;;;;;;;28.60;8.10;;;5.90;99.90;;;;;;5073317;28;20220;-73
2023/12/12 08:30:54;;;;;;;19.90;8.20;;;6.10;99.90;;;;;;5072942;28;20197;-73
2023/12/12 08:33:20;;;;;;;19.07;7.07;;;6.20;99.90;;;;;;5073445;28;20204;-73
2023/12/12 08:35:47;;;;;;;21.63;8.10;;;6.40;99.90;;;;;;5073078;28;20657;-73
2023/12/12 08:38:14;;;;;;;16.57;7.30;;;6.60;99.90;;;;;;5073113;28;20193;-73
2023/12/12 08:40:42;;;;;;;21.90;8.03;;;6.80;99.90;;;;;;5073088;28;20247;-73
2023/12/12 08:43:09;;;;;;;13.53;6.20;;;7.00;99.90;;;;;;5072941;28;20196;-73
2023/12/12 08:45:36;;;;;;;15.47;5.93;;;7.40;99.90;;;;;;5072980;28;20556;-73
2023/12/12 08:48:03;;;;;;;10.57;5.73;;;7.70;99.90;;;;;;5072811;28;20691;-74
2023/12/12 08:50:29;;;;;;;13.43;5.33;;;7.90;99.90;;;;;;5072912;28;20587;-74
2023/12/12 08:52:57;;;;;;;11.77;4.50;;;8.10;99.90;;;;;;5072815;28;20652;-73
2023/12/12 08:55:24;;;;;;;11.00;4.77;;;8.00;99.90;;;;;;5072940;28;20599;-74
2023/12/12 08:57:52;;;;;;;11.70;5.47;;;7.90;99.90;;;;;;5072739;28;20660;-74
2023/12/12 09:00:19;;;;;;;8.97;4.70;;;7.80;99.90;;;;;;5072768;28;20568;-73
2023/12/12 09:02:45;;;;;;;14.73;5.40;;;7.70;99.90;;;;;;5072938;28;20201;-74
2023/12/12 09:05:13;;;;;;;13.17;5.47;;;7.60;99.90;;;;;;5073095;28;20197;-73
2023/12/12 09:07:40;;;;;;;10.90;4.67;;;7.60;99.90;;;;;;5072666;28;20579;-73
2023/12/12 09:10:07;;;;;;;10.90;4.80;;;7.60;99.90;;;;;;5072828;28;20260;-73
2023/12/12 09:12:34;;;;;;;14.67;5.50;;;7.60;99.90;;;;;;5072577;28;20201;-74
2023/12/12 09:15:02;;;;;;;13.17;5.47;;;7.60;99.90;;;;;;5072780;28;20275;-73
2023/12/12 09:17:29;;;;;;;10.53;5.17;;;7.60;99.90;;;;;;5072012;28;20533;-73
2023/12/12 09:19:56;;;;;;;12.10;4.90;;;7.60;99.90;;;;;;5072662;28;20228;-73
2023/12/12 09:22:22;;;;;;;8.33;4.40;;;7.70;99.90;;;;;;5071587;28;20603;-73
2023/12/12 09:24:49;;;;;;;8.27;3.93;;;7.60;99.90;;;;;;5072503;28;20201;-72
2023/12/12 09:27:15;;;;;;;8.27;3.83;;;7.70;99.90;;;;;;5072592;28;20220;-73
2023/12/12 09:29:42;;;;;;;8.57;3.70;;;7.70;99.90;;;;;;5072671;28;20225;-73
2023/12/12 09:32:10;;;;;;;13.50;3.47;;;7.70;99.90;;;;;;5072588;28;20201;-73
2023/12/12 09:34:37;;;;;;;6.23;3.90;;;7.80;99.90;;;;;;5072568;28;20679;-73
2023/12/12 09:37:04;;;;;;;12.63;4.67;;;7.80;99.90;;;;;;5072477;28;20703;-73
2023/12/12 09:39:30;;;;;;;7.80;3.33;;;8.00;99.90;;;;;;5072243;28;20249;-73
2023/12/12 09:42:00;;;;;;;8.33;3.30;;;8.20;99.90;;;;;;5072614;28;20193;-73
2023/12/12 09:44:32;;;;;;;8.97;4.30;;;8.30;99.90;;;;;;5072253;28;20322;-73
2023/12/12 09:46:59;;;;;;;8.40;3.80;;;8.30;99.90;;;;;;5072288;28;20307;-73
2023/12/12 09:49:27;;;;;;;7.57;3.50;;;8.40;99.90;;;;;;5072212;28;20233;-73
2023/12/12 09:51:56;;;;;;;10.10;4.07;;;8.40;99.90;;;;;;5072157;28;20598;-73
2023/12/12 09:54:24;;;;;;;6.97;3.90;;;8.50;99.90;;;;;;5072204;28;20258;-73
2023/12/12 09:56:53;;;;;;;8.60;3.67;;;8.40;99.90;;;;;;5072257;28;20211;-73
2023/12/12 09:59:19;;;;;;;11.10;3.93;;;8.30;99.90;;;;;;5072186;28;20201;-73
2023/12/12 10:01:48;;;;;;;7.60;4.00;;;8.20;99.90;;;;;;5072468;28;20197;-73
2023/12/12 10:04:18;;;;;;;6.70;3.83;;;8.20;99.90;;;;;;5071941;28;20618;-72
2023/12/12 10:06:52;;;;;;;11.17;4.20;;;8.10;99.90;;;;;;5071853;28;20258;-72
2023/12/12 10:09:20;;;;;;;8.17;4.00;;;8.00;99.90;;;;;;5072158;28;20299;-72
2023/12/12 10:11:48;;;;;;;7.47;3.67;;;8.10;99.90;;;;;;5072050;28;20283;-72
2023/12/12 10:14:15;;;;;;;9.00;4.30;;;8.10;99.90;;;;;;5072004;28;20208;-72
2023/12/12 10:16:42;;;;;;;8.47;4.43;;;7.90;99.90;;;;;;5071976;28;20201;-72
2023/12/12 10:19:12;;;;;;;9.50;4.67;;;7.90;99.90;;;;;;5071865;28;20207;-72
2023/12/12 10:21:38;;;;;;;9.87;7.87;;;7.90;99.90;;;;;;5071868;28;20204;-72
2023/12/12 10:24:07;;;;;;;9.73;4.10;;;7.90;99.90;;;;;;5071901;28;20197;-72
2023/12/12 10:26:34;;;;;;;9.70;4.43;;;7.90;99.90;;;;;;5071875;28;20201;-72
2023/12/12 10:29:01;;;;;;;8.47;4.60;;;7.90;99.90;;;;;;5071851;28;20229;-72
2023/12/12 10:31:28;;;;;;;9.73;4.20;;;7.90;99.90;;;;;;5071645;28;20197;-72
2023/12/12 10:33:56;;;;;;;7.50;4.03;;;8.00;99.90;;;;;;5072692;28;20273;-72
2023/12/12 10:36:24;;;;;;;10.33;4.43;;;7.90;99.90;;;;;;5075492;28;20204;-73
2023/12/12 10:38:51;;;;;;;8.57;4.10;;;8.00;99.90;;;;;;5075366;28;20208;-72
2023/12/12 10:41:19;;;;;;;8.27;5.37;;;8.00;99.90;;;;;;5075237;28;20204;-72
2023/12/12 10:43:47;;;;;;;10.73;5.30;;;7.90;99.90;;;;;;5074967;28;20199;-72
2023/12/12 10:46:15;;;;;;;9.33;5.00;;;8.00;99.90;;;;;;5075506;28;20197;-73
2023/12/12 10:48:46;;;;;;;12.63;4.80;;;8.00;99.90;;;;;;5075099;28;20225;-73
2023/12/12 10:51:14;;;;;;;9.60;4.50;;;7.90;99.90;;;;;;5075818;28;20201;-71
2023/12/12 10:53:42;;;;;;;8.23;3.83;;;8.00;99.90;;;;;;5075994;28;20673;-72
2023/12/12 10:56:10;;;;;;;6.00;4.00;;;8.10;99.90;;;;;;5064700;28;20729;-73
2023/12/12 10:58:40;;;;;;;11.07;4.87;;;8.00;99.90;;;;;;5056189;28;20198;-73
2023/12/12 11:01:07;;;;;;;8.50;4.67;;;8.00;99.90;;;;;;5075057;28;20233;-73
2023/12/12 11:03:36;;;;;;;6.73;4.10;;;8.00;99.90;;;;;;5074832;28;20308;-74
2023/12/12 11:06:04;;;;;;;8.00;4.33;;;8.00;99.90;;;;;;5074929;28;20205;-72
2023/12/12 11:08:31;;;;;;;8.43;4.80;;;7.90;99.90;;;;;;5074785;28;20319;-72
2023/12/12 11:10:58;;;;;;;8.50;5.37;;;7.90;99.90;;;;;;5074849;28;20197;-72
2023/12/12 11:13:29;;;;;;;6.63;4.40;;;7.80;99.90;;;;;;5074581;28;20595;-71
2023/12/12 11:15:59;;;;;;;7.43;4.60;;;7.80;99.90;;;;;;5074821;28;20200;-72
2023/12/12 11:18:26;;;;;;;10.13;5.00;;;7.90;99.90;;;;;;5074718;28;20247;-72
2023/12/12 11:20:53;;;;;;;10.47;5.40;;;7.90;99.90;;;;;;5074594;28;20254;-71
2023/12/12 11:23:56;;;;;;;8.17;4.73;;;7.90;99.90;;;;;;5063041;28;20206;-72
2023/12/12 11:26:26;;;;;;;8.17;5.10;;;8.00;99.90;;;;;;5054551;28;20569;-72
2023/12/12 11:28:54;;;;;;;8.93;5.20;;;7.90;99.90;;;;;;5054438;28;20287;-73
2023/12/12 11:31:28;;;;;;;9.23;5.40;;;7.90;99.90;;;;;;5054312;28;20197;-72
2023/12/12 11:34:02;;;;;;;7.27;5.57;;;7.90;99.90;;;;;;5054257;28;20201;-72
2023/12/12 11:36:29;;;;;;;9.87;5.53;;;8.00;99.90;;;;;;5054060;28;20549;-73
2023/12/12 11:39:01;;;;;;;10.03;5.80;;;8.10;99.90;;;;;;5054211;28;20202;-73
2023/12/12 11:41:28;;;;;;;8.20;5.90;;;8.10;99.90;;;;;;5054240;28;20246;-73
2023/12/12 11:43:55;;;;;;;13.60;9.27;;;8.10;99.90;;;;;;5054104;28;20193;-72
2023/12/12 11:46:23;;;;;;;9.37;6.33;;;8.10;99.90;;;;;;5053485;28;20198;-72
2023/12/12 11:48:51;;;;;;;10.77;7.27;;;8.10;99.90;;;;;;5053623;28;20693;-72
2023/12/12 11:51:43;;;;;;;8.27;6.60;;;8.10;99.90;;;;;;5054113;28;20535;-72
2023/12/12 11:54:18;;;;;;;7.97;7.13;;;8.20;99.90;;;;;;5053851;28;20194;-73
2023/12/12 11:56:46;;;;;;;9.30;7.70;;;8.10;99.90;;;;;;5053807;28;20284;-73
2023/12/12 11:59:13;;;;;;;9.87;7.67;;;8.10;99.90;;;;;;5053564;28;20832;-73
2023/12/12 12:01:40;;;;;;;10.13;7.83;;;8.00;99.90;;;;;;5053411;28;20197;-72
2023/12/12 12:04:08;;;;;;;8.00;7.20;;;8.10;99.90;;;;;;5053532;28;20198;-72
2023/12/12 12:06:35;;;;;;;9.20;7.40;;;8.20;99.90;;;;;;5053299;28;20665;-73
2023/12/12 12:09:01;;;;;;;8.77;7.83;;;8.20;99.90;;;;;;5053423;28;20275;-73
2023/12/12 12:11:37;;;;;;;9.57;7.57;;;8.30;99.90;;;;;;5053462;28;20202;-73
2023/12/12 12:14:03;;;;;;;9.27;7.80;;;8.40;99.90;;;;;;5053642;28;20204;-75
2023/12/12 12:16:30;;;;;;;9.23;7.37;;;8.60;99.90;;;;;;5053615;28;20201;-73
2023/12/12 12:18:57;;;;;;;9.97;8.00;;;8.80;99.90;;;;;;5053335;28;20202;-75
2023/12/12 12:21:26;;;;;;;11.80;9.52;;;8.90;99.90;;;;;;5052425;28;20477;-74
2023/12/12 12:23:53;;;;;;;9.97;8.47;;;9.00;99.90;;;;;;5053320;28;20550;-74
2023/12/12 12:26:20;;;;;;;10.00;8.50;;;9.00;99.90;;;;;;5053221;28;20205;-74
2023/12/12 12:28:46;;;;;;;11.67;8.73;;;8.90;99.90;;;;;;5053515;28;20283;-75
2023/12/12 12:31:13;;;;;;;11.50;8.93;;;8.90;99.90;;;;;;5053471;28;20202;-74
2023/12/12 12:33:40;;;;;;;9.23;8.33;;;8.80;99.90;;;;;;5053271;28;20206;-74
2023/12/12 12:36:07;;;;;;;10.27;8.80;;;8.80;99.90;;;;;;5053203;28;20251;-75
2023/12/12 12:38:35;;;;;;;8.73;7.63;;;8.80;99.90;;;;;;5053196;28;20259;-75
2023/12/12 12:41:01;;;;;;;12.30;8.90;;;8.80;99.90;;;;;;5053410;28;20255;-74
2023/12/12 12:43:28;;;;;;;10.47;8.03;;;8.80;99.90;;;;;;5055532;28;20216;-73
2023/12/12 12:45:56;;;;;;;12.53;9.20;;;8.70;99.90;;;;;;5072926;28;20561;-74
2023/12/12 12:48:22;;;;;;;13.53;8.97;;;8.70;99.90;;;;;;5072885;28;20231;-74